सभी
Hay Airport (Hay, New South Wales) HXX मौसम
|
Hay, New South Wales (HXX / YHAY)
स्वच्छ आकाश
हल्की हवाएं |
|
12 °C |
There is no TAF data available at HXX or any nearby airports.
Recent HXX METAR history
| Date | Time (AEST) | Flight Rules | Wind Dir. | Speed | Type | Height AGL (ft) | Visibility | Temp (°C) | Temp (°F) | Dew Point (°C) | Dew Point (°F) | Rel. Humid. | Pressure | Density Altitude | Remarks |
|---|---|---|---|---|---|---|---|---|---|---|---|---|---|---|---|
| 06-मई | 09:00 | n/a | 270° | 5 kt | Missing | 12° | 53° | 11° | 51° | 94% | 1023 mb | -344 ft | |||
| 06-मई | 08:00 | n/a | 290° | 6 kt | Missing | 10° | 50° | 10° | 50° | 100% | 1023 mb | -584 ft | |||
| 06-मई | 07:00 | n/a | 280° | 4 kt | Missing | 8° | 46° | 8° | 46° | 100% | 1022 mb | -795 ft | |||
| 06-मई | 06:00 | n/a | 290° | 4 kt | Missing | 5° | 41° | 5° | 41° | 100% | 1022 mb | -1,155 ft | |||
| 06-मई | 05:00 | n/a | 270° | 3 kt | Missing | 6° | 42° | 6° | 42° | 100% | 1022 mb | -1,035 ft | |||
| 06-मई | 04:00 | n/a | 230° | 5 kt | Missing | 7° | 44° | 6° | 42° | 93% | 1022 mb | -915 ft | |||
| 06-मई | 03:00 | n/a | 270° | 4 kt | Missing | 6° | 42° | 6° | 42° | 100% | 1022 mb | -1,035 ft | |||
| 06-मई | 02:00 | n/a | Calm | Missing | 7° | 44° | 7° | 44° | 100% | 1023 mb | -944 ft | ||||
| 06-मई | 01:00 | n/a | Calm | Missing | 7° | 44° | 7° | 44° | 100% | 1023 mb | -944 ft | ||||
| 06-मई | 00:00 | n/a | 240° | 2 kt | Missing | 7° | 44° | 7° | 44° | 100% | 1023 mb | -944 ft | |||
| 05-मई | 23:00 | n/a | Calm | Missing | 8° | 46° | 7° | 44° | 93% | 1023 mb | -824 ft | ||||
| 05-मई | 22:00 | n/a | Calm | Missing | 8° | 46° | 8° | 46° | 100% | 1024 mb | -854 ft | ||||
| 05-मई | 21:00 | n/a | 210° | 1 kt | Missing | 10° | 50° | 9° | 48° | 93% | 1024 mb | -614 ft | |||
| 05-मई | 20:00 | n/a | 210° | 8 kt | Missing | 12° | 53° | 10° | 50° | 88% | 1023 mb | -344 ft | |||
| 05-मई | 19:00 | n/a | 230° | 8 kt | Missing | 14° | 57° | 10° | 50° | 77% | 1023 mb | -104 ft | |||
| 05-मई | 18:00 | n/a | 240° | 9 kt | Missing | 16° | 60° | 9° | 48° | 63% | 1022 mb | 165 ft | |||
| 05-मई | 17:00 | n/a | 250° | 9 kt | Missing | 17° | 62° | 9° | 48° | 59% | 1022 mb | 285 ft | |||
| 05-मई | 16:00 | n/a | 230° | 9 kt | Missing | 18° | 64° | 9° | 48° | 56% | 1021 mb | 435 ft | |||
| 05-मई | 15:00 | n/a | 210° | 9 kt | Missing | 20° | 68° | 9° | 48° | 49% | 1021 mb | 675 ft | |||
| 05-मई | 14:00 | n/a | 240° | 9 kt | Missing | 19° | 66° | 8° | 46° | 49% | 1021 mb | 555 ft | |||
| 05-मई | 13:00 | n/a | 250° | 9 kt | Missing | 18° | 64° | 9° | 48° | 56% | 1021 mb | 435 ft | |||
| 05-मई | 12:00 | n/a | 210° | 11 kt | Missing | 16° | 60° | 8° | 46° | 59% | 1022 mb | 165 ft | |||
| 05-मई | 11:00 | n/a | 230° | 10 kt | Missing | 17° | 62° | 10° | 50° | 63% | 1022 mb | 285 ft | |||
| 05-मई | 10:00 | n/a | 230° | 9 kt | Missing | 15° | 59° | 12° | 53° | 82% | 1022 mb | 45 ft |
लॉगिन
| Your browser is unsupported. अपना ब्राऊजर अपग्रेड करें |
